sensor_id;sensor_type;location;lat;lon;timestamp;pressure;altitude;pressure_sealevel;temperature;humidity
24045;BME280;26257;49.442;8.422;2022-12-07T00:00:28;100618.56;;;10.06;82.16
24045;BME280;26257;49.442;8.422;2022-12-07T00:02:53;100619.41;;;10.05;81.86
24045;BME280;26257;49.442;8.422;2022-12-07T00:05:19;100615.81;;;10.00;81.55
24045;BME280;26257;49.442;8.422;2022-12-07T00:07:44;100618.34;;;9.94;82.08
24045;BME280;26257;49.442;8.422;2022-12-07T00:10:09;100604.78;;;9.70;83.46
24045;BME280;26257;49.442;8.422;2022-12-07T00:12:35;100609.19;;;9.69;84.43
24045;BME280;26257;49.442;8.422;2022-12-07T00:15:00;100609.53;;;9.93;82.75
24045;BME280;26257;49.442;8.422;2022-12-07T00:17:26;100604.94;;;9.79;82.86
24045;BME280;26257;49.442;8.422;2022-12-07T00:19:51;100604.41;;;9.46;84.06
24045;BME280;26257;49.442;8.422;2022-12-07T00:22:17;100601.19;;;9.65;84.15
24045;BME280;26257;49.442;8.422;2022-12-07T00:24:42;100597.56;;;9.60;84.70
24045;BME280;26257;49.442;8.422;2022-12-07T00:27:07;100589.66;;;9.60;84.84
24045;BME280;26257;49.442;8.422;2022-12-07T00:29:33;100597.38;;;9.48;85.52
24045;BME280;26257;49.442;8.422;2022-12-07T00:31:58;100587.50;;;9.35;85.04
24045;BME280;26257;49.442;8.422;2022-12-07T00:34:23;100590.50;;;9.56;84.49
24045;BME280;26257;49.442;8.422;2022-12-07T00:36:49;100585.34;;;9.65;83.93
24045;BME280;26257;49.442;8.422;2022-12-07T00:39:15;100594.28;;;9.73;83.13
24045;BME280;26257;49.442;8.422;2022-12-07T00:41:41;100584.91;;;9.38;84.62
24045;BME280;26257;49.442;8.422;2022-12-07T00:44:07;100581.31;;;9.32;87.50
24045;BME280;26257;49.442;8.422;2022-12-07T00:46:32;100584.53;;;9.16;86.84
24045;BME280;26257;49.442;8.422;2022-12-07T00:48:58;100584.75;;;9.28;87.38
24045;BME280;26257;49.442;8.422;2022-12-07T00:51:24;100572.50;;;9.30;87.43
24045;BME280;26257;49.442;8.422;2022-12-07T00:53:50;100584.56;;;9.70;84.42
24045;BME280;26257;49.442;8.422;2022-12-07T00:56:24;100588.88;;;9.64;84.14
24045;BME280;26257;49.442;8.422;2022-12-07T00:58:55;100582.09;;;9.81;82.98
24045;BME280;26257;49.442;8.422;2022-12-07T01:01:21;100587.25;;;9.72;83.22
24045;BME280;26257;49.442;8.422;2022-12-07T01:03:46;100586.06;;;9.53;83.68
24045;BME280;26257;49.442;8.422;2022-12-07T01:06:17;100589.53;;;9.01;90.10
24045;BME280;26257;49.442;8.422;2022-12-07T01:08:43;100598.34;;;9.53;87.43
24045;BME280;26257;49.442;8.422;2022-12-07T01:11:12;100594.22;;;9.68;84.97
24045;BME280;26257;49.442;8.422;2022-12-07T01:13:38;100588.50;;;9.43;85.19
24045;BME280;26257;49.442;8.422;2022-12-07T01:16:05;100593.00;;;9.48;87.02
24045;BME280;26257;49.442;8.422;2022-12-07T01:18:33;100587.09;;;9.63;85.41
24045;BME280;26257;49.442;8.422;2022-12-07T01:23:30;100592.34;;;9.63;84.87
24045;BME280;26257;49.442;8.422;2022-12-07T01:25:57;100585.28;;;9.59;85.05
24045;BME280;26257;49.442;8.422;2022-12-07T01:28:23;100589.28;;;9.37;86.34
24045;BME280;26257;49.442;8.422;2022-12-07T01:31:19;100588.16;;;9.21;87.18
24045;BME280;26257;49.442;8.422;2022-12-07T01:33:47;100585.44;;;9.17;87.79
24045;BME280;26257;49.442;8.422;2022-12-07T01:36:15;100586.66;;;9.39;86.34
24045;BME280;26257;49.442;8.422;2022-12-07T01:38:41;100584.88;;;9.35;86.63
24045;BME280;26257;49.442;8.422;2022-12-07T01:41:06;100591.03;;;8.87;88.87
24045;BME280;26257;49.442;8.422;2022-12-07T01:43:33;100575.81;;;8.73;90.48
24045;BME280;26257;49.442;8.422;2022-12-07T01:45:59;100579.53;;;8.39;94.59
24045;BME280;26257;49.442;8.422;2022-12-07T01:48:29;100574.53;;;8.97;93.14
24045;BME280;26257;49.442;8.422;2022-12-07T01:50:56;100594.25;;;9.17;89.83
24045;BME280;26257;49.442;8.422;2022-12-07T01:53:27;100596.31;;;9.37;89.19
24045;BME280;26257;49.442;8.422;2022-12-07T01:55:55;100601.50;;;9.30;88.56
24045;BME280;26257;49.442;8.422;2022-12-07T01:58:21;100600.56;;;9.28;88.58
24045;BME280;26257;49.442;8.422;2022-12-07T02:00:47;100593.69;;;9.37;87.96
24045;BME280;26257;49.442;8.422;2022-12-07T02:03:18;100597.19;;;9.36;85.96
24045;BME280;26257;49.442;8.422;2022-12-07T02:05:46;100591.75;;;9.26;85.72
24045;BME280;26257;49.442;8.422;2022-12-07T02:08:12;100600.78;;;9.41;83.99
24045;BME280;26257;49.442;8.422;2022-12-07T02:10:38;100584.16;;;8.95;86.56
24045;BME280;26257;49.442;8.422;2022-12-07T02:13:08;100580.47;;;9.35;84.47
24045;BME280;26257;49.442;8.422;2022-12-07T02:21:59;100577.59;;;9.21;84.95
24045;BME280;26257;49.442;8.422;2022-12-07T02:24:52;100579.78;;;8.97;86.42
24045;BME280;26257;49.442;8.422;2022-12-07T02:27:36;100576.97;;;8.43;89.88
24045;BME280;26257;49.442;8.422;2022-12-07T02:30:14;100561.06;;;8.82;88.02
24045;BME280;26257;49.442;8.422;2022-12-07T02:41:38;100563.06;;;8.49;88.96
24045;BME280;26257;49.442;8.422;2022-12-07T02:44:08;100564.16;;;8.60;86.32
24045;BME280;26257;49.442;8.422;2022-12-07T02:46:41;100563.22;;;8.56;86.63
24045;BME280;26257;49.442;8.422;2022-12-07T03:10:01;100561.97;;;8.00;100.00
24045;BME280;26257;49.442;8.422;2022-12-07T03:15:26;100549.44;;;8.69;93.49
24045;BME280;26257;49.442;8.422;2022-12-07T03:17:54;100548.59;;;8.72;90.84
24045;BME280;26257;49.442;8.422;2022-12-07T03:20:22;100543.19;;;8.66;90.23
24045;BME280;26257;49.442;8.422;2022-12-07T03:22:49;100539.84;;;8.73;88.84
24045;BME280;26257;49.442;8.422;2022-12-07T03:25:16;100539.31;;;8.46;90.42
24045;BME280;26257;49.442;8.422;2022-12-07T03:28:08;100535.47;;;8.75;89.14
24045;BME280;26257;49.442;8.422;2022-12-07T03:30:39;100533.84;;;8.82;88.19
24045;BME280;26257;49.442;8.422;2022-12-07T03:36:28;100519.94;;;8.90;87.43
24045;BME280;26257;49.442;8.422;2022-12-07T03:41:54;100522.03;;;8.60;87.36
24045;BME280;26257;49.442;8.422;2022-12-07T03:44:20;100521.28;;;8.24;90.24
24045;BME280;26257;49.442;8.422;2022-12-07T03:49:48;100526.63;;;8.70;89.36
24045;BME280;26257;49.442;8.422;2022-12-07T03:52:25;100521.94;;;8.55;87.95
24045;BME280;26257;49.442;8.422;2022-12-07T03:55:22;100521.31;;;8.68;86.27
24045;BME280;26257;49.442;8.422;2022-12-07T03:57:47;100522.72;;;8.96;84.02
24045;BME280;26257;49.442;8.422;2022-12-07T04:00:15;100524.88;;;8.71;84.28
24045;BME280;26257;49.442;8.422;2022-12-07T04:02:42;100523.72;;;9.04;82.90
24045;BME280;26257;49.442;8.422;2022-12-07T04:05:08;100522.13;;;9.15;82.09
24045;BME280;26257;49.442;8.422;2022-12-07T04:07:34;100521.53;;;8.81;82.75
24045;BME280;26257;49.442;8.422;2022-12-07T04:09:59;100522.19;;;8.69;84.53
24045;BME280;26257;49.442;8.422;2022-12-07T04:12:24;100513.38;;;8.67;84.94
24045;BME280;26257;49.442;8.422;2022-12-07T04:14:50;100523.69;;;8.55;86.23
24045;BME280;26257;49.442;8.422;2022-12-07T04:17:15;100521.72;;;8.45;86.30
24045;BME280;26257;49.442;8.422;2022-12-07T04:19:41;100520.38;;;8.66;85.81
24045;BME280;26257;49.442;8.422;2022-12-07T04:22:06;100514.63;;;8.41;86.77
24045;BME280;26257;49.442;8.422;2022-12-07T04:24:32;100505.81;;;8.39;87.72
24045;BME280;26257;49.442;8.422;2022-12-07T04:26:58;100522.88;;;8.16;89.50
24045;BME280;26257;49.442;8.422;2022-12-07T04:29:24;100519.63;;;8.74;87.37
24045;BME280;26257;49.442;8.422;2022-12-07T04:31:50;100525.53;;;9.08;84.36
24045;BME280;26257;49.442;8.422;2022-12-07T04:34:16;100535.22;;;9.09;83.20
24045;BME280;26257;49.442;8.422;2022-12-07T04:36:43;100535.19;;;9.06;82.50
24045;BME280;26257;49.442;8.422;2022-12-07T04:39:34;100530.56;;;8.95;84.06
24045;BME280;26257;49.442;8.422;2022-12-07T04:42:00;100527.38;;;8.64;86.92
24045;BME280;26257;49.442;8.422;2022-12-07T04:44:26;100520.47;;;8.26;90.68
24045;BME280;26257;49.442;8.422;2022-12-07T04:46:53;100524.16;;;7.95;95.13
24045;BME280;26257;49.442;8.422;2022-12-07T04:49:20;100524.88;;;7.87;97.89
24045;BME280;26257;49.442;8.422;2022-12-07T04:51:45;100514.97;;;7.75;99.86
24045;BME280;26257;49.442;8.422;2022-12-07T04:54:12;100525.56;;;7.78;100.00
24045;BME280;26257;49.442;8.422;2022-12-07T04:56:37;100525.56;;;7.78;100.00
24045;BME280;26257;49.442;8.422;2022-12-07T04:59:03;100518.78;;;7.89;100.00
24045;BME280;26257;49.442;8.422;2022-12-07T05:01:30;100520.03;;;8.47;96.58
24045;BME280;26257;49.442;8.422;2022-12-07T05:03:56;100513.25;;;8.61;94.59
24045;BME280;26257;49.442;8.422;2022-12-07T05:06:22;100518.53;;;8.61;94.86
24045;BME280;26257;49.442;8.422;2022-12-07T05:08:48;100511.59;;;8.66;93.15
24045;BME280;26257;49.442;8.422;2022-12-07T05:11:14;100515.31;;;8.76;92.95
24045;BME280;26257;49.442;8.422;2022-12-07T05:13:58;100513.25;;;8.59;93.74
24045;BME280;26257;49.442;8.422;2022-12-07T05:16:23;100518.88;;;8.79;93.76
24045;BME280;26257;49.442;8.422;2022-12-07T05:18:48;100520.47;;;8.71;92.88
24045;BME280;26257;49.442;8.422;2022-12-07T05:21:14;100505.41;;;8.62;92.59
24045;BME280;26257;49.442;8.422;2022-12-07T05:23:39;100509.50;;;8.06;97.23
24045;BME280;26257;49.442;8.422;2022-12-07T05:26:04;100515.28;;;7.89;99.80
24045;BME280;26257;49.442;8.422;2022-12-07T05:28:30;100517.06;;;8.32;98.95
24045;BME280;26257;49.442;8.422;2022-12-07T05:30:55;100516.78;;;8.60;96.40
24045;BME280;26257;49.442;8.422;2022-12-07T05:33:20;100509.72;;;8.59;95.83
24045;BME280;26257;49.442;8.422;2022-12-07T05:35:46;100514.00;;;8.54;96.27
24045;BME280;26257;49.442;8.422;2022-12-07T05:38:11;100499.19;;;8.59;95.46
24045;BME280;26257;49.442;8.422;2022-12-07T05:40:37;100503.69;;;8.21;95.34
24045;BME280;26257;49.442;8.422;2022-12-07T05:43:02;100511.59;;;8.66;94.34
24045;BME280;26257;49.442;8.422;2022-12-07T05:45:28;100508.38;;;8.81;95.07
24045;BME280;26257;49.442;8.422;2022-12-07T05:47:53;100515.09;;;8.65;95.36
24045;BME280;26257;49.442;8.422;2022-12-07T05:50:19;100509.94;;;8.71;94.85
24045;BME280;26257;49.442;8.422;2022-12-07T05:52:44;100508.25;;;8.73;97.22
24045;BME280;26257;49.442;8.422;2022-12-07T05:55:09;100511.72;;;8.72;95.38
24045;BME280;26257;49.442;8.422;2022-12-07T05:57:35;100514.63;;;8.86;95.29
24045;BME280;26257;49.442;8.422;2022-12-07T06:00:00;100513.59;;;8.79;96.01
24045;BME280;26257;49.442;8.422;2022-12-07T06:02:26;100513.91;;;8.97;95.15
24045;BME280;26257;49.442;8.422;2022-12-07T06:04:51;100516.38;;;8.87;95.63
24045;BME280;26257;49.442;8.422;2022-12-07T06:07:17;100510.63;;;8.59;98.20
24045;BME280;26257;49.442;8.422;2022-12-07T06:09:42;100515.94;;;8.21;100.00
24045;BME280;26257;49.442;8.422;2022-12-07T06:12:13;100506.66;;;8.84;98.55
24045;BME280;26257;49.442;8.422;2022-12-07T06:14:57;100506.91;;;8.96;97.72
24045;BME280;26257;49.442;8.422;2022-12-07T06:17:23;100515.63;;;8.94;96.44
24045;BME280;26257;49.442;8.422;2022-12-07T06:19:49;100517.50;;;8.99;95.71
24045;BME280;26257;49.442;8.422;2022-12-07T06:22:14;100519.28;;;8.55;98.71
24045;BME280;26257;49.442;8.422;2022-12-07T06:24:41;100522.69;;;8.50;100.00
24045;BME280;26257;49.442;8.422;2022-12-07T06:27:07;100521.78;;;8.48;100.00
24045;BME280;26257;49.442;8.422;2022-12-07T06:29:33;100520.19;;;8.56;100.00
24045;BME280;26257;49.442;8.422;2022-12-07T06:31:58;100520.25;;;8.60;100.00
24045;BME280;26257;49.442;8.422;2022-12-07T06:34:24;100521.91;;;8.54;100.00
24045;BME280;26257;49.442;8.422;2022-12-07T06:36:51;100532.31;;;8.48;100.00
24045;BME280;26257;49.442;8.422;2022-12-07T06:39:19;100528.91;;;8.52;100.00
24045;BME280;26257;49.442;8.422;2022-12-07T06:41:45;100531.63;;;8.58;100.00
24045;BME280;26257;49.442;8.422;2022-12-07T06:44:10;100534.94;;;8.48;100.00
24045;BME280;26257;49.442;8.422;2022-12-07T06:46:36;100532.28;;;8.04;100.00
24045;BME280;26257;49.442;8.422;2022-12-07T06:49:02;100534.25;;;8.16;100.00
24045;BME280;26257;49.442;8.422;2022-12-07T06:51:28;100528.59;;;7.98;100.00
24045;BME280;26257;49.442;8.422;2022-12-07T06:53:53;100534.22;;;8.55;100.00
24045;BME280;26257;49.442;8.422;2022-12-07T06:56:19;100532.28;;;8.93;100.00
24045;BME280;26257;49.442;8.422;2022-12-07T06:58:44;100520.16;;;9.02;100.00
24045;BME280;26257;49.442;8.422;2022-12-07T07:01:14;100526.75;;;8.79;100.00
24045;BME280;26257;49.442;8.422;2022-12-07T07:03:40;100527.66;;;8.78;99.13
24045;BME280;26257;49.442;8.422;2022-12-07T07:06:06;100532.47;;;9.02;97.44
24045;BME280;26257;49.442;8.422;2022-12-07T07:08:33;100529.66;;;8.93;96.96
24045;BME280;26257;49.442;8.422;2022-12-07T07:10:59;100526.06;;;8.89;96.29
24045;BME280;26257;49.442;8.422;2022-12-07T07:13:25;100545.97;;;8.72;97.58
24045;BME280;26257;49.442;8.422;2022-12-07T07:15:51;100535.00;;;8.97;96.41
24045;BME280;26257;49.442;8.422;2022-12-07T07:18:16;100536.91;;;9.04;96.47
24045;BME280;26257;49.442;8.422;2022-12-07T07:20:42;100545.53;;;8.97;97.61
24045;BME280;26257;49.442;8.422;2022-12-07T07:23:07;100541.44;;;9.13;95.20
24045;BME280;26257;49.442;8.422;2022-12-07T07:25:33;100545.53;;;8.97;95.10
24045;BME280;26257;49.442;8.422;2022-12-07T07:27:59;100551.72;;;8.53;99.94
24045;BME280;26257;49.442;8.422;2022-12-07T07:30:25;100550.03;;;8.55;100.00
24045;BME280;26257;49.442;8.422;2022-12-07T07:32:51;100551.56;;;8.44;100.00
24045;BME280;26257;49.442;8.422;2022-12-07T07:35:16;100542.94;;;8.99;100.00
24045;BME280;26257;49.442;8.422;2022-12-07T07:37:42;100549.06;;;8.96;97.46
24045;BME280;26257;49.442;8.422;2022-12-07T07:40:09;100552.06;;;8.71;100.00
24045;BME280;26257;49.442;8.422;2022-12-07T07:42:34;100548.78;;;8.81;100.00
24045;BME280;26257;49.442;8.422;2022-12-07T07:45:00;100542.56;;;9.28;97.48
24045;BME280;26257;49.442;8.422;2022-12-07T07:47:25;100537.28;;;9.27;94.04
24045;BME280;26257;49.442;8.422;2022-12-07T07:49:50;100543.88;;;9.02;96.33
24045;BME280;26257;49.442;8.422;2022-12-07T07:52:16;100548.47;;;9.14;97.07
24045;BME280;26257;49.442;8.422;2022-12-07T07:54:41;100546.03;;;9.24;93.98
24045;BME280;26257;49.442;8.422;2022-12-07T07:57:07;100547.31;;;8.98;96.23
24045;BME280;26257;49.442;8.422;2022-12-07T07:59:32;100554.31;;;8.96;97.86
24045;BME280;26257;49.442;8.422;2022-12-07T08:01:58;100556.13;;;9.00;100.00
24045;BME280;26257;49.442;8.422;2022-12-07T08:04:24;100563.50;;;9.19;97.26
24045;BME280;26257;49.442;8.422;2022-12-07T08:06:49;100563.25;;;9.04;96.01
24045;BME280;26257;49.442;8.422;2022-12-07T08:09:15;100566.28;;;8.79;100.00
24045;BME280;26257;49.442;8.422;2022-12-07T08:11:40;100571.53;;;8.79;100.00
24045;BME280;26257;49.442;8.422;2022-12-07T08:14:05;100566.72;;;9.02;100.00
24045;BME280;26257;49.442;8.422;2022-12-07T08:16:31;100575.63;;;9.10;100.00
24045;BME280;26257;49.442;8.422;2022-12-07T08:18:56;100573.19;;;9.20;100.00
24045;BME280;26257;49.442;8.422;2022-12-07T08:21:22;100571.38;;;9.70;97.10
24045;BME280;26257;49.442;8.422;2022-12-07T08:23:47;100569.78;;;9.83;93.23
24045;BME280;26257;49.442;8.422;2022-12-07T08:26:15;100565.72;;;10.05;90.79
24045;BME280;26257;49.442;8.422;2022-12-07T08:28:41;100573.53;;;9.96;90.21
24045;BME280;26257;49.442;8.422;2022-12-07T08:31:13;100566.53;;;9.99;89.14
24045;BME280;26257;49.442;8.422;2022-12-07T08:33:40;100568.72;;;9.70;89.67
24045;BME280;26257;49.442;8.422;2022-12-07T08:36:08;100565.97;;;9.63;90.76
24045;BME280;26257;49.442;8.422;2022-12-07T08:38:36;100563.34;;;9.63;90.85
24045;BME280;26257;49.442;8.422;2022-12-07T08:41:02;100561.78;;;9.75;90.88
24045;BME280;26257;49.442;8.422;2022-12-07T08:43:28;100568.09;;;9.85;90.51
24045;BME280;26257;49.442;8.422;2022-12-07T08:48:26;100565.56;;;9.92;90.35
24045;BME280;26257;49.442;8.422;2022-12-07T08:50:51;100560.19;;;9.85;88.66
24045;BME280;26257;49.442;8.422;2022-12-07T09:09:52;100572.69;;;8.47;100.00
24045;BME280;26257;49.442;8.422;2022-12-07T09:12:17;100565.00;;;9.05;100.00
24045;BME280;26257;49.442;8.422;2022-12-07T09:14:43;100562.94;;;9.37;100.00
24045;BME280;26257;49.442;8.422;2022-12-07T09:17:11;100565.19;;;9.67;98.95
24045;BME280;26257;49.442;8.422;2022-12-07T09:19:37;100563.09;;;10.03;94.47
24045;BME280;26257;49.442;8.422;2022-12-07T09:22:03;100562.28;;;10.09;92.55
24045;BME280;26257;49.442;8.422;2022-12-07T09:24:30;100568.75;;;10.30;91.57
24045;BME280;26257;49.442;8.422;2022-12-07T09:26:57;100575.84;;;10.34;90.77
24045;BME280;26257;49.442;8.422;2022-12-07T09:29:23;100568.22;;;10.57;88.40
24045;BME280;26257;49.442;8.422;2022-12-07T09:31:51;100565.38;;;10.43;88.73
24045;BME280;26257;49.442;8.422;2022-12-07T09:34:16;100566.03;;;10.24;88.74
24045;BME280;26257;49.442;8.422;2022-12-07T09:36:42;100565.38;;;10.43;88.33
24045;BME280;26257;49.442;8.422;2022-12-07T09:39:08;100572.47;;;10.44;86.86
24045;BME280;26257;49.442;8.422;2022-12-07T09:41:38;100569.09;;;10.58;88.99
24045;BME280;26257;49.442;8.422;2022-12-07T09:44:07;100566.09;;;10.30;89.66
24045;BME280;26257;49.442;8.422;2022-12-07T09:46:39;100563.31;;;10.93;85.31
24045;BME280;26257;49.442;8.422;2022-12-07T09:49:20;100558.69;;;10.73;84.71
24045;BME280;26257;49.442;8.422;2022-12-07T09:51:46;100561.94;;;10.47;85.14
24045;BME280;26257;49.442;8.422;2022-12-07T09:54:15;100551.00;;;10.95;84.51
24045;BME280;26257;49.442;8.422;2022-12-07T09:56:41;100548.22;;;10.79;84.28
24045;BME280;26257;49.442;8.422;2022-12-07T09:59:13;100539.44;;;10.83;83.60
24045;BME280;26257;49.442;8.422;2022-12-07T10:01:40;100550.78;;;10.71;83.19
24045;BME280;26257;49.442;8.422;2022-12-07T10:04:13;100541.75;;;10.52;83.46
24045;BME280;26257;49.442;8.422;2022-12-07T10:06:41;100545.53;;;10.76;81.94
24045;BME280;26257;49.442;8.422;2022-12-07T10:09:15;100544.00;;;10.99;81.12
24045;BME280;26257;49.442;8.422;2022-12-07T10:14:28;100540.09;;;10.62;80.68
24045;BME280;26257;49.442;8.422;2022-12-07T10:16:54;100538.16;;;10.49;82.01
24045;BME280;26257;49.442;8.422;2022-12-07T10:19:30;100535.78;;;10.69;80.66
24045;BME280;26257;49.442;8.422;2022-12-07T10:24:29;100535.69;;;10.63;82.66
24045;BME280;26257;49.442;8.422;2022-12-07T10:26:55;100533.59;;;10.34;82.43
24045;BME280;26257;49.442;8.422;2022-12-07T10:29:34;100530.88;;;10.28;80.74
24045;BME280;26257;49.442;8.422;2022-12-07T10:32:02;100537.47;;;10.64;78.10
24045;BME280;26257;49.442;8.422;2022-12-07T10:34:36;100538.28;;;10.60;78.40
24045;BME280;26257;49.442;8.422;2022-12-07T10:39:46;100522.44;;;10.61;77.22
24045;BME280;26257;49.442;8.422;2022-12-07T10:42:23;100519.03;;;10.70;77.46
24045;BME280;26257;49.442;8.422;2022-12-07T10:45:06;100523.22;;;10.49;77.06
24045;BME280;26257;49.442;8.422;2022-12-07T10:47:50;100514.94;;;10.19;80.31
24045;BME280;26257;49.442;8.422;2022-12-07T10:50:41;100524.03;;;10.42;79.71
24045;BME280;26257;49.442;8.422;2022-12-07T10:53:33;100521.94;;;10.17;81.89
24045;BME280;26257;49.442;8.422;2022-12-07T11:01:49;100519.63;;;10.44;81.94
24045;BME280;26257;49.442;8.422;2022-12-07T11:06:59;100511.91;;;9.92;81.68
24045;BME280;26257;49.442;8.422;2022-12-07T11:09:42;100510.44;;;10.12;81.92
24045;BME280;26257;49.442;8.422;2022-12-07T11:14:56;100507.06;;;10.25;79.33
24045;BME280;26257;49.442;8.422;2022-12-07T11:23:18;100493.66;;;10.84;75.14
24045;BME280;26257;49.442;8.422;2022-12-07T11:32:29;100488.72;;;10.34;75.55
24045;BME280;26257;49.442;8.422;2022-12-07T11:34:39;100481.88;;;10.56;75.15
24045;BME280;26257;49.442;8.422;2022-12-07T11:37:32;100476.69;;;10.61;75.87
24045;BME280;26257;49.442;8.422;2022-12-07T11:43:31;100475.41;;;10.25;76.87
24045;BME280;26257;49.442;8.422;2022-12-07T11:46:09;100477.50;;;10.57;75.67
24045;BME280;26257;49.442;8.422;2022-12-07T11:52:02;100465.09;;;10.49;75.79
24045;BME280;26257;49.442;8.422;2022-12-07T11:54:33;100460.16;;;10.83;74.74
24045;BME280;26257;49.442;8.422;2022-12-07T11:57:04;100442.66;;;10.97;73.87
24045;BME280;26257;49.442;8.422;2022-12-07T11:59:47;100443.50;;;12.60;67.66
24045;BME280;26257;49.442;8.422;2022-12-07T12:02:16;100443.13;;;14.54;56.67
24045;BME280;26257;49.442;8.422;2022-12-07T12:07:17;100427.06;;;16.42;48.64
24045;BME280;26257;49.442;8.422;2022-12-07T12:10:02;100423.84;;;17.32;44.18
24045;BME280;26257;49.442;8.422;2022-12-07T12:15:29;100415.22;;;18.10;42.10
24045;BME280;26257;49.442;8.422;2022-12-07T12:18:18;100418.94;;;18.03;41.08
24045;BME280;26257;49.442;8.422;2022-12-07T12:20:51;100417.59;;;17.33;41.45
24045;BME280;26257;49.442;8.422;2022-12-07T12:23:22;100422.06;;;16.18;44.51
24045;BME280;26257;49.442;8.422;2022-12-07T12:26:01;100424.03;;;15.19;46.77
24045;BME280;26257;49.442;8.422;2022-12-07T12:28:38;100414.72;;;14.62;48.74
24045;BME280;26257;49.442;8.422;2022-12-07T12:33:33;100417.03;;;12.66;54.63
24045;BME280;26257;49.442;8.422;2022-12-07T12:47:00;100423.56;;;11.37;61.50
24045;BME280;26257;49.442;8.422;2022-12-07T12:49:42;100422.50;;;11.09;61.40
24045;BME280;26257;49.442;8.422;2022-12-07T12:57:33;100419.88;;;11.14;65.23
24045;BME280;26257;49.442;8.422;2022-12-07T13:00:02;100416.69;;;10.47;67.25
24045;BME280;26257;49.442;8.422;2022-12-07T13:02:30;100417.47;;;10.37;66.67
24045;BME280;26257;49.442;8.422;2022-12-07T13:21:00;100389.69;;;10.85;67.29
24045;BME280;26257;49.442;8.422;2022-12-07T13:26:02;100378.41;;;11.08;65.50
24045;BME280;26257;49.442;8.422;2022-12-07T13:28:36;100380.66;;;10.59;66.22
24045;BME280;26257;49.442;8.422;2022-12-07T13:31:34;100376.22;;;10.53;66.98
24045;BME280;26257;49.442;8.422;2022-12-07T13:34:02;100372.81;;;10.69;66.21
24045;BME280;26257;49.442;8.422;2022-12-07T13:36:38;100365.72;;;10.61;66.66
24045;BME280;26257;49.442;8.422;2022-12-07T13:39:44;100373.69;;;10.64;65.55
24045;BME280;26257;49.442;8.422;2022-12-07T13:42:06;100375.44;;;10.63;65.63
24045;BME280;26257;49.442;8.422;2022-12-07T13:44:34;100365.00;;;10.83;64.62
24045;BME280;26257;49.442;8.422;2022-12-07T13:47:17;100364.47;;;11.31;64.32
24045;BME280;26257;49.442;8.422;2022-12-07T13:49:49;100362.09;;;11.81;62.35
24045;BME280;26257;49.442;8.422;2022-12-07T13:52:16;100363.31;;;10.91;64.95
24045;BME280;26257;49.442;8.422;2022-12-07T13:54:57;100364.25;;;10.97;65.08
24045;BME280;26257;49.442;8.422;2022-12-07T13:57:28;100356.44;;;11.17;66.09
24045;BME280;26257;49.442;8.422;2022-12-07T13:59:56;100356.88;;;10.56;68.43
24045;BME280;26257;49.442;8.422;2022-12-07T14:02:29;100362.53;;;11.04;68.00
24045;BME280;26257;49.442;8.422;2022-12-07T14:07:49;100353.72;;;11.08;67.35
24045;BME280;26257;49.442;8.422;2022-12-07T14:12:53;100357.91;;;10.73;67.05
24045;BME280;26257;49.442;8.422;2022-12-07T14:15:26;100357.97;;;10.82;67.64
24045;BME280;26257;49.442;8.422;2022-12-07T14:17:54;100362.94;;;10.42;66.75
24045;BME280;26257;49.442;8.422;2022-12-07T14:20:36;100361.31;;;10.60;66.02
24045;BME280;26257;49.442;8.422;2022-12-07T14:23:03;100359.72;;;10.83;65.75
24045;BME280;26257;49.442;8.422;2022-12-07T14:25:45;100370.28;;;10.80;65.87
24045;BME280;26257;49.442;8.422;2022-12-07T14:28:32;100358.28;;;11.30;71.78
24045;BME280;26257;49.442;8.422;2022-12-07T14:30:59;100359.75;;;10.86;69.19
24045;BME280;26257;49.442;8.422;2022-12-07T14:33:26;100358.22;;;11.21;67.27
24045;BME280;26257;49.442;8.422;2022-12-07T14:35:52;100362.78;;;11.48;65.79
24045;BME280;26257;49.442;8.422;2022-12-07T14:38:23;100363.47;;;11.12;65.57
24045;BME280;26257;49.442;8.422;2022-12-07T14:40:50;100368.53;;;10.79;67.18
24045;BME280;26257;49.442;8.422;2022-12-07T14:43:18;100364.91;;;10.66;67.77
24045;BME280;26257;49.442;8.422;2022-12-07T14:45:44;100363.56;;;11.27;66.03
24045;BME280;26257;49.442;8.422;2022-12-07T14:48:16;100354.69;;;11.19;66.63
24045;BME280;26257;49.442;8.422;2022-12-07T14:50:48;100357.19;;;10.96;67.24
24045;BME280;26257;49.442;8.422;2022-12-07T14:53:17;100357.06;;;10.80;67.41
24045;BME280;26257;49.442;8.422;2022-12-07T14:55:43;100350.97;;;10.88;67.04
24045;BME280;26257;49.442;8.422;2022-12-07T14:58:14;100360.38;;;10.53;69.01
24045;BME280;26257;49.442;8.422;2022-12-07T15:00:40;100361.25;;;10.50;69.31
24045;BME280;26257;49.442;8.422;2022-12-07T15:03:05;100361.00;;;10.26;70.44
24045;BME280;26257;49.442;8.422;2022-12-07T15:05:33;100356.00;;;10.57;69.73
24045;BME280;26257;49.442;8.422;2022-12-07T15:07:58;100354.09;;;10.37;69.23
24045;BME280;26257;49.442;8.422;2022-12-07T15:10:27;100356.59;;;10.25;70.56
24045;BME280;26257;49.442;8.422;2022-12-07T15:12:57;100352.50;;;10.58;68.02
24045;BME280;26257;49.442;8.422;2022-12-07T15:15:43;100354.09;;;10.37;69.83
24045;BME280;26257;49.442;8.422;2022-12-07T15:18:09;100354.91;;;10.33;69.73
24045;BME280;26257;49.442;8.422;2022-12-07T15:20:34;100346.19;;;10.42;69.15
24045;BME280;26257;49.442;8.422;2022-12-07T15:22:59;100358.19;;;10.11;69.85
24045;BME280;26257;49.442;8.422;2022-12-07T15:25:25;100353.19;;;10.37;69.96
24045;BME280;26257;49.442;8.422;2022-12-07T15:27:50;100345.41;;;10.53;68.77
24045;BME280;26257;49.442;8.422;2022-12-07T15:30:16;100345.50;;;10.64;67.97
24045;BME280;26257;49.442;8.422;2022-12-07T15:32:41;100346.91;;;10.27;68.73
24045;BME280;26257;49.442;8.422;2022-12-07T15:35:07;100344.16;;;10.15;69.09
24045;BME280;26257;49.442;8.422;2022-12-07T15:37:32;100349.50;;;10.20;69.38
24045;BME280;26257;49.442;8.422;2022-12-07T15:39:58;100336.44;;;10.33;69.72